Time;durP1;ratioP1;P1;durP2;ratioP2;P2;SDS_P1;SDS_P2;PMS_P1;PMS_P2;Temp;Humidity;BMP_temperature;BMP_pressure;BME280_temperature;BME280_humidity;BME280_pressure;Samples;Min_cycle;Max_cycle;Signal;HPM_P1;HPM_P2
2023/06/14 00:00:39;;;;;;;0.00;0.00;;;;;;;18.25;44.54;100339.50;4993642;28;20033;-74
2023/06/14 00:03:04;;;;;;;0.00;0.00;;;;;;;18.19;44.86;100346.31;5003290;28;20488;-75
2023/06/14 00:05:32;;;;;;;0.00;0.00;;;;;;;18.12;45.18;100349.56;4999243;28;20018;-72
2023/06/14 00:08:00;;;;;;;0.00;0.00;;;;;;;18.02;44.84;100352.59;4987660;28;20088;-73
2023/06/14 00:10:30;;;;;;;0.00;0.00;;;;;;;17.95;45.04;100355.81;4996199;28;20527;-72
2023/06/14 00:12:56;;;;;;;0.00;0.00;;;;;;;17.86;45.32;100349.41;4990905;28;20042;-73
2023/06/14 00:15:23;;;;;;;0.00;0.00;;;;;;;17.81;45.57;100355.03;4997438;28;20097;-73
2023/06/14 00:17:49;;;;;;;0.00;0.00;;;;;;;17.76;45.46;100361.53;4982760;28;20067;-74
2023/06/14 00:20:14;;;;;;;0.00;0.00;;;;;;;17.66;45.49;100366.50;4993247;28;20034;-74
2023/06/14 00:22:39;;;;;;;0.00;0.00;;;;;;;17.58;45.81;100366.13;5000453;28;20045;-72
2023/06/14 00:25:06;;;;;;;0.00;0.00;;;;;;;17.53;45.90;100363.50;4986722;28;20022;-75
2023/06/14 00:27:31;;;;;;;0.00;0.00;;;;;;;17.44;45.91;100365.38;5013681;28;20096;-75
2023/06/14 00:29:58;;;;;;;0.00;0.00;;;;;;;17.37;45.91;100365.00;4971156;28;20038;-74
2023/06/14 00:32:25;;;;;;;0.00;0.00;;;;;;;17.24;45.86;100356.47;4969603;28;20044;-74
2023/06/14 00:34:51;;;;;;;0.00;0.00;;;;;;;17.17;45.88;100350.56;5001108;28;20088;-74
2023/06/14 00:37:17;;;;;;;0.00;0.00;;;;;;;17.21;46.26;100362.59;5012299;28;20030;-74
2023/06/14 00:39:42;;;;;;;0.00;0.00;;;;;;;17.17;45.99;100364.38;5000463;28;20028;-73
2023/06/14 00:42:07;;;;;;;0.00;0.00;;;;;;;17.03;46.33;100349.78;5013672;28;20076;-76
2023/06/14 00:44:36;;;;;;;0.00;0.00;;;;;;;17.09;46.01;100365.09;4995706;28;20054;-76
2023/06/14 00:47:01;;;;;;;0.00;0.00;;;;;;;17.05;46.07;100364.09;4994735;28;20030;-76
2023/06/14 00:49:29;;;;;;;0.00;0.00;;;;;;;16.99;46.20;100365.34;5007496;28;20489;-74
2023/06/14 00:51:55;;;;;;;0.00;0.00;;;;;;;16.91;46.74;100353.88;4996241;28;20781;-75
2023/06/14 00:54:20;;;;;;;0.00;0.00;;;;;;;16.95;46.97;100358.78;4986090;28;20061;-75
2023/06/14 00:56:46;;;;;;;0.00;0.00;;;;;;;16.90;46.96;100360.53;5007016;28;20965;-74
2023/06/14 00:59:11;;;;;;;0.00;0.00;;;;;;;16.87;47.23;100366.69;4960550;28;20042;-75
2023/06/14 01:01:38;;;;;;;0.00;0.00;;;;;;;16.85;47.20;100365.31;4987625;28;20029;-75
2023/06/14 01:04:05;;;;;;;0.00;0.00;;;;;;;16.77;47.23;100369.63;4997947;28;20428;-73
2023/06/14 01:06:41;;;;;;;0.00;0.00;;;;;;;16.72;47.42;100378.84;5002456;28;20748;-74
2023/06/14 01:09:18;;;;;;;0.00;0.00;;;;;;;16.67;47.79;100373.41;5000898;28;20945;-74
2023/06/14 01:12:04;;;;;;;0.00;0.00;;;;;;;16.71;47.73;100373.63;5005062;28;20037;-74
2023/06/14 01:14:34;;;;;;;0.00;0.00;;;;;;;16.70;47.61;100372.00;5000908;28;20531;-74
2023/06/14 01:17:00;;;;;;;0.00;0.00;;;;;;;16.71;48.15;100370.88;5017094;28;20474;-74
2023/06/14 01:19:28;;;;;;;0.00;0.00;;;;;;;16.78;48.22;100374.03;5005509;28;20361;-74
2023/06/14 01:21:55;;;;;;;0.00;0.00;;;;;;;16.81;48.20;100362.38;5009272;28;20033;-74
2023/06/14 01:24:25;;;;;;;0.00;0.00;;;;;;;16.82;48.18;100377.81;4996209;28;20392;-74
2023/06/14 01:26:55;;;;;;;0.00;0.00;;;;;;;16.75;48.06;100366.38;4992751;28;20030;-73
2023/06/14 01:29:23;;;;;;;0.00;0.00;;;;;;;16.71;48.11;100374.44;5011235;28;20328;-74
2023/06/14 01:31:50;;;;;;;0.00;0.00;;;;;;;16.66;48.33;100373.72;4998543;28;20120;-74
2023/06/14 01:34:15;;;;;;;0.00;0.00;;;;;;;16.60;48.22;100363.91;4983272;28;20019;-74
2023/06/14 01:36:44;;;;;;;0.00;0.00;;;;;;;16.65;48.69;100372.13;5009792;28;20037;-74
2023/06/14 01:39:15;;;;;;;0.00;0.00;;;;;;;16.67;48.01;100367.09;4995628;28;20121;-74
2023/06/14 01:41:42;;;;;;;0.00;0.00;;;;;;;16.76;48.30;100379.03;5002221;28;20057;-74
2023/06/14 01:44:09;;;;;;;0.00;0.00;;;;;;;16.78;47.84;100374.03;4997162;28;20554;-75
2023/06/14 01:46:35;;;;;;;0.00;0.00;;;;;;;16.81;47.65;100375.38;5003047;28;20077;-73
2023/06/14 01:49:02;;;;;;;0.00;0.00;;;;;;;16.77;47.48;100369.63;5010171;28;20732;-75
2023/06/14 01:51:27;;;;;;;0.00;0.00;;;;;;;16.79;47.57;100370.13;4984580;28;20046;-74
2023/06/14 01:53:52;;;;;;;0.00;0.00;;;;;;;16.79;47.71;100375.66;4977748;28;20034;-73
2023/06/14 01:56:18;;;;;;;0.00;0.00;;;;;;;16.78;47.56;100370.44;4981346;28;20034;-72
2023/06/14 01:58:43;;;;;;;0.00;0.00;;;;;;;16.67;47.47;100353.28;4995291;28;20033;-74
2023/06/14 02:01:09;;;;;;;0.00;0.00;;;;;;;16.63;47.16;100363.31;5007598;28;20466;-73
2023/06/14 02:03:34;;;;;;;0.00;0.00;;;;;;;16.50;47.34;100359.44;4994850;28;20045;-72
2023/06/14 02:06:00;;;;;;;0.00;0.00;;;;;;;16.34;47.98;100356.16;5006061;28;20030;-74
2023/06/14 02:08:25;;;;;;;0.00;0.00;;;;;;;16.25;48.19;100367.09;4981058;28;20733;-73
2023/06/14 02:10:54;;;;;;;0.00;0.00;;;;;;;16.15;48.22;100365.38;4985943;28;20075;-73
2023/06/14 02:13:19;;;;;;;0.00;0.00;;;;;;;16.06;48.43;100369.94;5012263;28;20582;-73
2023/06/14 02:15:44;;;;;;;0.00;0.00;;;;;;;15.94;48.59;100353.06;5000240;28;20038;-73
2023/06/14 02:18:11;;;;;;;0.00;0.00;;;;;;;15.92;48.81;100358.09;5013305;28;20042;-72
2023/06/14 02:20:36;;;;;;;0.00;0.00;;;;;;;15.86;49.56;100357.34;5005664;28;20075;-75
2023/06/14 02:23:02;;;;;;;0.00;0.00;;;;;;;15.77;49.63;100348.94;5003866;28;20022;-72
2023/06/14 02:25:27;;;;;;;0.00;0.00;;;;;;;15.74;49.89;100346.78;4992108;28;20037;-72
2023/06/14 02:27:54;;;;;;;0.00;0.00;;;;;;;15.67;49.95;100349.91;5002881;28;20050;-73
2023/06/14 02:30:20;;;;;;;0.00;0.00;;;;;;;15.56;50.40;100345.69;4998380;28;20463;-74
2023/06/14 02:32:46;;;;;;;0.00;0.00;;;;;;;15.56;50.86;100358.66;4993370;28;20041;-74
2023/06/14 02:35:13;;;;;;;0.00;0.00;;;;;;;15.49;51.13;100354.34;5004571;28;20184;-75
2023/06/14 02:37:38;;;;;;;0.00;0.00;;;;;;;15.39;51.09;100343.50;4994635;28;20042;-74
2023/06/14 02:40:06;;;;;;;0.00;0.00;;;;;;;15.29;51.52;100341.72;4997513;28;20042;-75
2023/06/14 02:42:31;;;;;;;0.00;0.00;;;;;;;15.16;51.77;100332.28;4978294;28;20365;-74
2023/06/14 02:44:57;;;;;;;0.00;0.00;;;;;;;15.09;52.17;100334.59;5016126;28;20037;-74
2023/06/14 02:47:22;;;;;;;0.00;0.00;;;;;;;15.02;52.45;100339.66;4989782;28;20030;-75
2023/06/14 02:49:47;;;;;;;0.00;0.00;;;;;;;14.93;52.54;100346.94;5000670;28;20030;-75
2023/06/14 02:52:13;;;;;;;0.00;0.00;;;;;;;14.82;52.83;100347.09;4975415;28;20411;-74
2023/06/14 02:54:38;;;;;;;0.00;0.00;;;;;;;14.67;52.86;100344.53;5011882;28;20153;-75
2023/06/14 02:57:04;;;;;;;0.00;0.00;;;;;;;14.52;53.01;100347.47;4998586;28;20087;-73
2023/06/14 02:59:29;;;;;;;0.00;0.00;;;;;;;14.46;53.62;100339.25;4997297;28;20030;-74
2023/06/14 03:01:55;;;;;;;0.00;0.00;;;;;;;14.47;53.89;100335.41;5004207;28;20034;-75
2023/06/14 03:04:20;;;;;;;0.00;0.00;;;;;;;14.40;54.17;100340.44;4987243;28;20063;-73
2023/06/14 03:06:50;;;;;;;0.00;0.00;;;;;;;14.35;54.32;100332.25;5001129;28;20079;-74
2023/06/14 03:09:15;;;;;;;0.00;0.00;;;;;;;14.27;54.70;100341.16;4989698;28;20623;-74
2023/06/14 03:11:41;;;;;;;0.00;0.00;;;;;;;14.16;54.80;100345.13;4998180;28;20059;-77
2023/06/14 03:14:08;;;;;;;0.00;0.00;;;;;;;14.02;54.68;100340.34;4968213;28;20018;-73
2023/06/14 03:16:33;;;;;;;0.00;0.00;;;;;;;13.97;54.34;100356.88;4983802;28;20060;-74
2023/06/14 03:18:59;;;;;;;0.00;0.00;;;;;;;13.88;55.00;100356.69;5013778;28;20068;-73
2023/06/14 03:21:25;;;;;;;0.00;0.00;;;;;;;13.74;54.97;100345.56;5002121;28;20030;-74
2023/06/14 03:23:52;;;;;;;0.00;0.00;;;;;;;13.74;55.40;100345.56;4991215;28;20038;-74
2023/06/14 03:26:18;;;;;;;0.00;0.00;;;;;;;13.69;55.17;100342.84;4982650;28;20034;-74
2023/06/14 03:28:45;;;;;;;0.00;0.00;;;;;;;13.57;54.99;100348.72;5001426;28;20050;-74
2023/06/14 03:31:11;;;;;;;0.00;0.00;;;;;;;13.51;54.96;100351.81;5006481;28;20025;-72
2023/06/14 03:33:37;;;;;;;0.00;0.00;;;;;;;13.40;55.07;100346.41;5002331;28;20387;-72
2023/06/14 03:36:03;;;;;;;0.00;0.00;;;;;;;13.35;54.81;100351.91;5000875;28;20041;-73
2023/06/14 03:38:28;;;;;;;0.00;0.00;;;;;;;13.28;55.05;100359.63;5004251;28;20037;-74
2023/06/14 03:40:54;;;;;;;0.00;0.00;;;;;;;13.20;54.66;100357.47;4982432;28;20397;-72
2023/06/14 03:43:20;;;;;;;0.00;0.00;;;;;;;13.13;54.45;100367.97;5004758;28;20034;-72
2023/06/14 03:45:45;;;;;;;0.00;0.00;;;;;;;13.08;54.14;100366.06;4989927;28;20463;-73
2023/06/14 03:48:11;;;;;;;0.00;0.00;;;;;;;13.04;54.69;100363.09;5006398;28;20053;-73
2023/06/14 03:50:37;;;;;;;0.00;0.00;;;;;;;12.99;54.67;100363.09;4996176;28;20097;-72
2023/06/14 03:53:04;;;;;;;0.00;0.00;;;;;;;12.95;53.94;100361.22;5014043;28;20038;-74
2023/06/14 03:55:31;;;;;;;0.00;0.00;;;;;;;12.90;54.59;100362.88;5005792;28;20340;-73
2023/06/14 03:57:56;;;;;;;0.00;0.00;;;;;;;12.89;54.45;100371.41;4990675;28;20044;-74
2023/06/14 04:00:23;;;;;;;0.00;0.00;;;;;;;12.84;53.84;100369.50;4984361;28;20026;-74
2023/06/14 04:02:48;;;;;;;0.00;0.00;;;;;;;12.74;54.01;100367.63;4992187;28;20127;-73
2023/06/14 04:05:16;;;;;;;0.00;0.00;;;;;;;12.72;54.54;100369.03;5004131;28;20054;-74
2023/06/14 04:07:44;;;;;;;0.00;0.00;;;;;;;12.64;54.49;100362.19;5000104;28;20038;-73
2023/06/14 04:10:12;;;;;;;0.00;0.00;;;;;;;12.59;54.74;100367.72;4997119;28;20029;-73
2023/06/14 04:12:38;;;;;;;0.00;0.00;;;;;;;12.58;54.22;100374.28;5008213;28;20042;-74
2023/06/14 04:15:06;;;;;;;0.00;0.00;;;;;;;12.55;54.84;100363.88;4991986;28;20488;-73
2023/06/14 04:17:32;;;;;;;0.00;0.00;;;;;;;12.60;55.22;100377.59;5014762;28;20049;-73
2023/06/14 04:19:59;;;;;;;0.00;0.00;;;;;;;12.58;55.24;100368.81;5002172;28;20040;-73
2023/06/14 04:22:28;;;;;;;0.00;0.00;;;;;;;12.66;55.19;100384.69;4997392;28;20026;-73
2023/06/14 04:24:56;;;;;;;0.00;0.00;;;;;;;12.69;55.11;100375.91;4990946;28;20044;-74
2023/06/14 04:27:25;;;;;;;0.00;0.00;;;;;;;12.66;55.00;100379.22;4981751;28;20129;-73
2023/06/14 04:29:56;;;;;;;0.00;0.00;;;;;;;12.65;55.19;100374.81;4995605;28;20019;-73
2023/06/14 04:32:39;;;;;;;0.00;0.00;;;;;;;12.70;55.55;100382.19;4999223;28;20025;-74
2023/06/14 04:35:08;;;;;;;0.00;0.00;;;;;;;12.75;55.75;100379.44;4991138;28;20172;-75
2023/06/14 04:37:34;;;;;;;0.00;0.00;;;;;;;12.78;55.41;100384.38;4993398;28;20038;-72
2023/06/14 04:39:59;;;;;;;0.00;0.00;;;;;;;12.79;55.27;100369.56;4976814;28;20200;-73
2023/06/14 04:42:25;;;;;;;0.00;0.00;;;;;;;12.87;55.82;100381.84;4998032;28;20552;-74
2023/06/14 04:44:51;;;;;;;0.00;0.00;;;;;;;12.94;55.69;100387.84;5008794;28;20043;-74
2023/06/14 04:47:17;;;;;;;0.00;0.00;;;;;;;12.92;55.68;100390.03;4993295;28;20050;-72
2023/06/14 04:49:43;;;;;;;0.00;0.00;;;;;;;12.92;55.65;100401.03;4985888;28;20046;-73
2023/06/14 04:52:10;;;;;;;0.00;0.00;;;;;;;12.90;55.67;100398.56;5004119;28;20065;-73
2023/06/14 04:54:44;;;;;;;0.00;0.00;;;;;;;12.85;55.64;100401.34;5001577;28;20125;-73
2023/06/14 04:57:14;;;;;;;0.00;0.00;;;;;;;12.90;56.07;100400.50;5004574;28;20071;-74
2023/06/14 04:59:40;;;;;;;0.00;0.00;;;;;;;12.93;56.02;100391.69;4984868;28;20054;-72
2023/06/14 05:02:06;;;;;;;0.00;0.00;;;;;;;12.99;56.43;100400.72;4995314;28;20091;-73
2023/06/14 05:04:32;;;;;;;0.00;0.00;;;;;;;13.03;57.05;100401.81;5019040;28;20034;-74
2023/06/14 05:06:58;;;;;;;0.00;0.00;;;;;;;13.03;56.39;100399.06;5008816;28;20045;-74
2023/06/14 05:09:23;;;;;;;0.00;0.00;;;;;;;13.10;57.02;100403.13;4995561;28;20107;-73
2023/06/14 05:11:50;;;;;;;0.00;0.00;;;;;;;13.10;56.73;100403.13;4961116;28;20069;-73
2023/06/14 05:14:16;;;;;;;0.00;0.00;;;;;;;13.16;57.15;100405.84;5003533;28;20030;-73
2023/06/14 05:16:41;;;;;;;0.00;0.00;;;;;;;13.13;56.49;100395.41;5001279;28;20092;-74
2023/06/14 05:19:07;;;;;;;0.00;0.00;;;;;;;13.07;56.74;100387.22;5003824;28;20030;-75
2023/06/14 05:21:44;;;;;;;;;;;;;;;;;;;;;
2023/06/14 05:24:11;;;;;;;0.00;0.00;;;;;;;13.21;57.04;100408.56;4997428;28;20028;-75
2023/06/14 05:26:36;;;;;;;0.00;0.00;;;;;;;13.25;57.15;100404.13;5012055;28;20095;-75
2023/06/14 05:29:02;;;;;;;0.00;0.00;;;;;;;13.30;56.96;100408.78;4988430;28;20034;-74
2023/06/14 05:31:28;;;;;;;0.00;0.00;;;;;;;13.36;57.36;100408.50;5002885;28;20049;-74
2023/06/14 05:33:53;;;;;;;0.00;0.00;;;;;;;13.39;57.04;100394.19;4989675;28;20072;-73
2023/06/14 05:36:21;;;;;;;0.00;0.00;;;;;;;13.43;57.51;100395.28;5008138;28;20044;-78
2023/06/14 05:39:00;;;;;;;;;;;;;;;;;;;;;
2023/06/14 05:41:59;;;;;;;;;;;;;;;;;;;;;
2023/06/14 05:44:51;;;;;;;0.00;0.00;;;;;;;13.24;59.13;100410.72;4998981;28;20507;-78
2023/06/14 05:47:57;;;;;;;0.00;0.00;;;;;;;12.98;59.71;100377.97;4990454;28;20044;-78
2023/06/14 05:50:37;;;;;;;0.00;0.00;;;;;;;12.87;60.08;100365.38;4997825;28;20503;-77
2023/06/14 05:53:31;;;;;;;0.00;0.00;;;;;;;12.85;59.66;100351.09;5012289;28;20473;-76
2023/06/14 05:56:04;;;;;;;0.00;0.00;;;;;;;13.02;60.17;100373.53;5002555;28;20034;-76
2023/06/14 05:58:34;;;;;;;0.00;0.00;;;;;;;13.15;60.63;100383.06;5013566;28;20037;-73
2023/06/14 06:01:07;;;;;;;0.00;0.00;;;;;;;13.22;61.37;100388.25;5009393;28;20034;-74
2023/06/14 06:03:33;;;;;;;0.00;0.00;;;;;;;13.22;61.19;100378.06;5001822;28;20045;-75
2023/06/14 06:06:06;;;;;;;0.00;0.00;;;;;;;13.42;61.23;100393.63;5013053;28;20087;-79
2023/06/14 06:08:35;;;;;;;0.00;0.00;;;;;;;13.47;61.78;100378.22;5008788;28;20057;-78
2023/06/14 06:11:01;;;;;;;0.00;0.00;;;;;;;13.74;62.04;100410.66;5009142;28;20052;-77
2023/06/14 06:13:29;;;;;;;0.00;0.00;;;;;;;13.77;62.05;100399.13;4995007;28;20018;-77
2023/06/14 06:15:56;;;;;;;0.00;0.00;;;;;;;13.81;61.73;100399.34;5015245;28;20034;-77
2023/06/14 06:18:22;;;;;;;0.00;0.00;;;;;;;13.86;62.83;100399.31;5009585;28;21332;-76
2023/06/14 06:20:48;;;;;;;0.00;0.00;;;;;;;13.94;62.62;100402.28;5013988;28;20113;-77
2023/06/14 06:23:13;;;;;;;0.00;0.00;;;;;;;14.17;61.98;100419.09;5005793;28;20026;-76
2023/06/14 06:25:38;;;;;;;0.00;0.00;;;;;;;14.12;62.62;100388.91;5005712;28;20038;-77
2023/06/14 06:28:06;;;;;;;0.00;0.00;;;;;;;14.30;62.01;100399.16;4977808;28;20058;-76
2023/06/14 06:30:35;;;;;;;0.00;0.00;;;;;;;14.48;61.95;100408.59;4995170;28;20034;-76
2023/06/14 06:33:01;;;;;;;0.00;0.00;;;;;;;14.47;62.07;100395.94;4990975;28;20031;-78
2023/06/14 06:35:27;;;;;;;0.00;0.00;;;;;;;14.54;62.56;100387.31;4994536;28;20060;-76
2023/06/14 06:37:52;;;;;;;0.00;0.00;;;;;;;14.71;62.36;100399.81;4967382;28;20030;-77
2023/06/14 06:40:18;;;;;;;0.00;0.00;;;;;;;14.83;62.17;100402.97;5019519;28;20034;-78
2023/06/14 06:42:43;;;;;;;0.00;0.00;;;;;;;14.93;61.84;100407.53;4994596;28;20084;-76
2023/06/14 06:45:09;;;;;;;0.00;0.00;;;;;;;15.13;62.09;100414.69;5009894;28;20060;-77
2023/06/14 06:47:39;;;;;;;0.00;0.00;;;;;;;15.29;61.52;100415.28;5017451;28;20040;-75
2023/06/14 06:50:07;;;;;;;0.00;0.00;;;;;;;15.45;61.18;100413.94;4983768;28;20060;-75
2023/06/14 06:52:33;;;;;;;0.00;0.00;;;;;;;15.67;60.72;100420.78;5009012;28;20134;-75
2023/06/14 06:54:59;;;;;;;0.00;0.00;;;;;;;15.93;60.04;100436.91;5016446;28;20098;-76
2023/06/14 06:57:28;;;;;;;0.00;0.00;;;;;;;15.92;60.01;100399.44;5024684;28;20038;-77
2023/06/14 06:59:57;;;;;;;0.00;0.00;;;;;;;16.35;59.54;100432.31;5010814;28;20034;-75
2023/06/14 07:02:24;;;;;;;0.00;0.00;;;;;;;16.43;59.04;100426.09;5007377;28;20041;-77
2023/06/14 07:04:52;;;;;;;0.00;0.00;;;;;;;16.42;58.28;100412.59;5008136;28;22219;-75
2023/06/14 07:07:18;;;;;;;0.00;0.00;;;;;;;16.62;58.27;100438.97;5018685;28;20033;-77
2023/06/14 07:09:46;;;;;;;0.00;0.00;;;;;;;16.62;58.07;100425.16;4985535;28;20042;-76
2023/06/14 07:12:11;;;;;;;0.00;0.00;;;;;;;16.85;57.81;100442.63;5006504;28;20464;-75
2023/06/14 07:14:37;;;;;;;0.00;0.00;;;;;;;16.79;57.10;100417.06;4996381;28;20034;-75
2023/06/14 07:17:02;;;;;;;0.00;0.00;;;;;;;17.07;57.06;100428.13;5001502;28;20111;-76
2023/06/14 07:19:28;;;;;;;0.00;0.00;;;;;;;17.38;56.57;100438.50;4990227;28;20026;-75
2023/06/14 07:21:53;;;;;;;0.00;0.00;;;;;;;17.52;56.84;100428.22;4984597;28;20030;-77
2023/06/14 07:24:21;;;;;;;0.00;0.00;;;;;;;17.61;56.20;100418.03;4984776;28;20037;-75
2023/06/14 07:26:48;;;;;;;0.00;0.00;;;;;;;17.72;55.52;100415.03;4975876;28;20066;-75
2023/06/14 07:29:14;;;;;;;0.00;0.00;;;;;;;17.83;55.50;100427.47;4996221;28;20029;-76
2023/06/14 07:31:48;;;;;;;0.00;0.00;;;;;;;17.86;54.86;100413.00;4974763;28;20550;-75
2023/06/14 07:34:14;;;;;;;0.00;0.00;;;;;;;17.98;54.63;100408.88;4996564;28;20399;-75
2023/06/14 07:36:40;;;;;;;0.00;0.00;;;;;;;18.31;54.08;100437.88;4982168;28;20477;-76
2023/06/14 07:39:11;;;;;;;0.00;0.00;;;;;;;18.31;53.98;100420.44;4996319;28;20033;-74
2023/06/14 07:41:59;;;;;;;0.00;0.00;;;;;;;18.47;54.02;100427.22;4999628;28;20459;-74
2023/06/14 07:44:40;;;;;;;0.00;0.00;;;;;;;18.67;52.71;100447.97;4999206;28;20433;-75
2023/06/14 07:47:10;;;;;;;0.00;0.00;;;;;;;18.54;52.84;100412.88;5001246;28;20036;-76
2023/06/14 07:53:07;;;;;;;0.00;0.00;;;;;;;18.97;51.81;100428.84;5003695;28;21407;-75
2023/06/14 07:55:36;;;;;;;0.00;0.00;;;;;;;19.17;51.42;100423.81;4998033;28;20048;-75
2023/06/14 07:58:10;;;;;;;0.00;0.00;;;;;;;19.33;51.06;100427.78;5011653;28;20026;-76
2023/06/14 08:00:35;;;;;;;0.00;0.00;;;;;;;19.48;50.12;100437.56;4990237;28;20038;-75
2023/06/14 08:03:08;;;;;;;0.00;0.00;;;;;;;19.47;50.27;100421.25;5001503;28;20033;-74
2023/06/14 08:05:34;;;;;;;0.00;0.00;;;;;;;19.73;49.76;100448.97;4998908;28;20457;-76
2023/06/14 08:08:00;;;;;;;0.00;0.00;;;;;;;19.88;49.46;100447.69;5012234;28;20030;-75
2023/06/14 08:10:25;;;;;;;0.00;0.00;;;;;;;20.14;49.15;100446.81;4991059;28;20161;-76
2023/06/14 08:12:50;;;;;;;0.00;0.00;;;;;;;20.28;48.85;100427.19;4984568;28;20042;-76
2023/06/14 08:15:17;;;;;;;0.00;0.00;;;;;;;20.62;48.24;100442.91;5013602;28;20482;-77
2023/06/14 08:17:51;;;;;;;0.00;0.00;;;;;;;20.78;48.17;100428.47;5003976;28;20125;-76
2023/06/14 08:20:18;;;;;;;0.00;0.00;;;;;;;21.08;47.05;100452.34;4981423;28;20030;-76
2023/06/14 08:22:47;;;;;;;0.00;0.00;;;;;;;21.02;45.72;100436.97;5006548;28;20431;-76
2023/06/14 08:25:14;;;;;;;0.00;0.00;;;;;;;21.18;45.34;100462.22;4998956;28;20061;-76
2023/06/14 08:27:40;;;;;;;0.00;0.00;;;;;;;21.08;44.81;100438.44;4995019;28;20030;-75
2023/06/14 08:30:08;;;;;;;0.00;0.00;;;;;;;21.38;44.81;100457.03;5018096;28;20040;-77
2023/06/14 08:32:33;;;;;;;0.00;0.00;;;;;;;21.57;44.28;100448.25;5017572;28;20030;-76
2023/06/14 08:34:58;;;;;;;0.00;0.00;;;;;;;21.50;43.96;100422.91;4988705;28;20056;-77
2023/06/14 08:37:24;;;;;;;0.00;0.00;;;;;;;21.67;43.58;100433.94;5006407;28;20017;-74
2023/06/14 08:39:50;;;;;;;0.00;0.00;;;;;;;21.93;43.61;100449.56;5012446;28;20054;-76
2023/06/14 08:42:18;;;;;;;0.00;0.00;;;;;;;21.99;42.57;100442.63;5008488;28;20033;-76
2023/06/14 08:44:46;;;;;;;0.00;0.00;;;;;;;22.13;42.43;100440.31;5005409;28;20109;-75
2023/06/14 08:47:13;;;;;;;0.00;0.00;;;;;;;22.28;41.92;100435.25;5027774;28;20369;-74
2023/06/14 08:49:48;;;;;;;0.00;0.00;;;;;;;22.44;41.67;100450.19;4997419;28;20088;-75
2023/06/14 08:52:18;;;;;;;0.00;0.00;;;;;;;22.61;41.28;100465.06;5010669;28;20046;-76
2023/06/14 08:54:45;;;;;;;0.00;0.00;;;;;;;22.74;40.63;100463.91;5006003;28;20038;-77
2023/06/14 08:57:15;;;;;;;0.00;0.00;;;;;;;22.78;40.11;100462.06;4977317;28;20046;-76
2023/06/14 08:59:46;;;;;;;0.00;0.00;;;;;;;22.86;39.87;100451.94;4993753;28;20026;-75
2023/06/14 09:02:13;;;;;;;0.00;0.00;;;;;;;23.08;40.17;100456.22;4999701;28;20038;-76
2023/06/14 09:04:39;;;;;;;0.00;0.00;;;;;;;23.26;39.54;100469.94;5012993;28;20456;-77
2023/06/14 09:07:06;;;;;;;0.00;0.00;;;;;;;23.23;39.00;100448.34;4983208;28;20387;-79
2023/06/14 09:09:32;;;;;;;0.00;0.00;;;;;;;23.45;39.00;100467.34;5008674;28;20058;-76
2023/06/14 09:11:57;;;;;;;0.00;0.00;;;;;;;23.44;38.52;100448.97;4982511;28;20041;-75
2023/06/14 09:14:24;;;;;;;0.00;0.00;;;;;;;23.55;37.63;100442.91;5011232;28;20380;-77
2023/06/14 09:16:54;;;;;;;0.00;0.00;;;;;;;23.80;37.93;100461.19;5006111;28;20132;-75
2023/06/14 09:19:24;;;;;;;0.00;0.00;;;;;;;23.87;37.99;100444.69;5013386;28;20026;-75
2023/06/14 09:21:52;;;;;;;0.00;0.00;;;;;;;24.19;38.39;100469.88;5003047;28;20029;-74
2023/06/14 09:24:18;;;;;;;0.00;0.00;;;;;;;24.21;37.25;100456.38;4996857;28;20023;-75
2023/06/14 09:26:46;;;;;;;0.00;0.00;;;;;;;24.51;37.87;100467.09;4987751;28;20041;-75
2023/06/14 09:29:11;;;;;;;0.00;0.00;;;;;;;24.45;37.00;100456.56;5002778;28;20478;-75
2023/06/14 09:31:37;;;;;;;0.00;0.00;;;;;;;24.62;36.69;100461.00;5012545;28;20113;-75
2023/06/14 09:34:05;;;;;;;0.00;0.00;;;;;;;24.73;37.31;100440.53;4969792;28;20018;-76
2023/06/14 09:36:33;;;;;;;0.00;0.00;;;;;;;24.90;37.17;100439.34;4997356;28;20053;-75
2023/06/14 09:39:07;;;;;;;0.00;0.00;;;;;;;25.05;36.98;100440.47;4995945;28;20030;-76
2023/06/14 09:41:43;;;;;;;0.00;0.00;;;;;;;25.35;36.04;100469.94;4998814;28;20357;-76
2023/06/14 09:44:11;;;;;;;0.00;0.00;;;;;;;25.31;35.40;100455.09;4992021;28;20027;-76
2023/06/14 09:46:39;;;;;;;0.00;0.00;;;;;;;25.36;35.49;100446.38;5010107;28;20021;-75
2023/06/14 09:49:06;;;;;;;0.00;0.00;;;;;;;25.51;35.66;100451.13;5004565;28;20088;-76
2023/06/14 09:51:31;;;;;;;0.00;0.00;;;;;;;25.63;35.07;100446.53;5002664;28;20022;-75
2023/06/14 09:54:09;;;;;;;0.00;0.00;;;;;;;25.80;35.25;100460.09;5005791;28;20032;-75
2023/06/14 09:56:41;;;;;;;0.00;0.00;;;;;;;25.94;35.14;100445.56;5001267;28;20034;-75
2023/06/14 09:59:09;;;;;;;0.00;0.00;;;;;;;26.02;34.79;100455.78;5003742;28;20033;-76
2023/06/14 10:01:40;;;;;;;0.00;0.00;;;;;;;26.25;34.59;100455.78;4997692;28;20106;-76
2023/06/14 10:04:09;;;;;;;0.00;0.00;;;;;;;26.42;34.21;100443.28;5000490;28;20859;-77
2023/06/14 10:06:43;;;;;;;0.00;0.00;;;;;;;26.91;33.86;100460.53;5013746;28;20034;-77
2023/06/14 10:09:11;;;;;;;0.00;0.00;;;;;;;27.86;32.70;100444.56;5009661;28;20029;-75
2023/06/14 10:11:43;;;;;;;0.00;0.00;;;;;;;30.32;29.41;100461.94;4986389;28;20096;-76
2023/06/14 10:14:10;;;;;;;0.00;0.00;;;;;;;33.35;25.60;100469.06;5023371;28;20456;-76
2023/06/14 10:17:00;;;;;;;0.00;0.00;;;;;;;36.65;22.52;100477.84;5003372;28;20061;-76
2023/06/14 10:19:35;;;;;;;0.00;0.00;;;;;;;39.58;19.55;100468.41;5000192;28;20105;-75
2023/06/14 10:22:10;;;;;;;0.00;0.00;;;;;;;41.89;17.27;100466.47;5011997;28;20029;-75
2023/06/14 10:24:43;;;;;;;0.00;0.00;;;;;;;43.82;15.47;100463.47;5007573;28;20037;-76
2023/06/14 10:27:16;;;;;;;0.00;0.00;;;;;;;45.20;14.61;100448.41;5001591;28;20073;-76
2023/06/14 10:29:57;;;;;;;0.00;0.00;;;;;;;46.47;13.43;100455.50;5008490;28;20042;-77
2023/06/14 10:32:24;;;;;;;0.00;0.00;;;;;;;46.84;12.96;100448.81;5014774;28;20494;-77
2023/06/14 10:35:08;;;;;;;0.00;0.00;;;;;;;47.56;12.19;100458.19;5005470;28;20025;-75
2023/06/14 10:37:36;;;;;;;0.00;0.00;;;;;;;48.44;12.19;100453.38;5014755;28;20044;-78
2023/06/14 10:40:02;;;;;;;0.00;0.00;;;;;;;49.64;12.23;100440.63;5025405;28;20080;-76
2023/06/14 10:42:34;;;;;;;0.00;0.00;;;;;;;51.09;11.63;100447.44;4997349;28;20423;-77
2023/06/14 10:45:00;;;;;;;0.00;0.00;;;;;;;51.68;10.32;100438.03;4992155;28;20018;-76
2023/06/14 10:47:37;;;;;;;0.00;0.00;;;;;;;51.54;10.29;100456.81;4988665;28;20663;-76
2023/06/14 10:50:08;;;;;;;0.00;0.00;;;;;;;52.05;9.87;100447.19;4993628;28;20056;-77
2023/06/14 10:52:41;;;;;;;0.00;0.00;;;;;;;52.41;9.16;100444.63;5004840;28;20045;-76
2023/06/14 10:55:09;;;;;;;0.00;0.00;;;;;;;52.82;9.55;100457.84;5014012;28;20026;-76
2023/06/14 10:57:39;;;;;;;0.00;0.00;;;;;;;53.20;9.01;100442.13;5019093;28;20033;-75
2023/06/14 11:00:15;;;;;;;0.00;0.00;;;;;;;53.63;8.54;100432.03;4979396;28;20087;-76
2023/06/14 11:02:52;;;;;;;0.00;0.00;;;;;;;54.41;8.80;100450.94;5010973;28;20030;-76
2023/06/14 11:05:26;;;;;;;0.00;0.00;;;;;;;55.10;7.98;100438.72;5022047;28;20053;-76
2023/06/14 11:08:49;;;;;;;0.00;0.00;;;;;;;55.01;7.90;100439.28;5013735;28;20434;-76
2023/06/14 11:11:15;;;;;;;0.00;0.00;;;;;;;55.36;7.95;100413.41;4981349;28;20525;-78
2023/06/14 11:13:46;;;;;;;0.00;0.00;;;;;;;55.43;7.68;100409.69;4950360;28;20125;-76
2023/06/14 11:19:17;;;;;;;;;;;;;;;;;;;;;
2023/06/14 11:22:24;;;;;;;;;;;;;;;;;;;;;
2023/06/14 11:25:07;;;;;;;;;;;;;;;;;;;;;
2023/06/14 11:28:21;;;;;;;;;;;;;;;;;;;;;
2023/06/14 11:30:59;;;;;;;0.00;0.00;;;;;;;57.73;6.66;100390.84;5000999;28;20038;-76
2023/06/14 11:34:19;;;;;;;;;;;;;;;;;;;;;
2023/06/14 11:36:52;;;;;;;0.00;0.00;;;;;;;58.27;6.52;100396.16;4991404;28;20048;-77
2023/06/14 11:39:24;;;;;;;0.00;0.00;;;;;;;58.14;6.39;100388.47;5002689;28;20068;-77
2023/06/14 11:42:07;;;;;;;0.00;0.00;;;;;;;58.82;6.62;100397.03;4994950;28;20054;-76
2023/06/14 11:44:50;;;;;;;0.00;0.00;;;;;;;59.07;6.24;100393.16;4990247;28;20385;-77
2023/06/14 11:47:16;;;;;;;0.00;0.00;;;;;;;59.20;5.91;100402.34;4995115;28;20022;-76
2023/06/14 11:49:51;;;;;;;0.00;0.00;;;;;;;58.90;5.98;100391.81;5013058;28;20037;-76
2023/06/14 11:52:30;;;;;;;;;;;;;;;;;;;;;